createdAt,value
2022-07-31T00:02:24.883Z,24.70
2022-07-31T00:05:09.635Z,24.66
2022-07-31T00:07:56.186Z,24.51
2022-07-31T00:10:40.310Z,24.47
2022-07-31T00:13:57.780Z,24.47
2022-07-31T00:16:28.878Z,24.64
2022-07-31T00:19:12.713Z,24.62
2022-07-31T00:21:56.577Z,24.77
2022-07-31T00:24:42.107Z,24.93
2022-07-31T00:27:26.063Z,24.90
2022-07-31T00:30:13.074Z,24.61
2022-07-31T00:32:56.986Z,24.51
2022-07-31T00:35:40.931Z,24.47
2022-07-31T00:38:26.827Z,24.55
2022-07-31T00:41:12.882Z,24.43
2022-07-31T00:43:56.839Z,24.41
2022-07-31T00:46:41.459Z,24.52
2022-07-31T00:49:25.999Z,24.29
2022-07-31T00:52:21.471Z,23.91
2022-07-31T00:55:06.410Z,23.88
2022-07-31T00:57:52.056Z,23.73
2022-07-31T01:00:35.929Z,23.84
2022-07-31T01:03:19.927Z,23.62
2022-07-31T01:06:04.150Z,23.59
2022-07-31T01:08:48.140Z,23.63
2022-07-31T01:11:40.191Z,23.51
2022-07-31T01:14:29.770Z,23.20
2022-07-31T01:17:15.392Z,23.57
2022-07-31T01:19:59.720Z,23.42
2022-07-31T01:23:05.696Z,23.07
2022-07-31T01:26:05.392Z,23.14
2022-07-31T01:29:07.475Z,23.28
2022-07-31T01:31:58.195Z,23.52
2022-07-31T01:34:49.074Z,23.57
2022-07-31T01:37:37.637Z,23.57
2022-07-31T01:40:29.010Z,23.39
2022-07-31T01:43:17.510Z,23.53
2022-07-31T01:46:04.730Z,23.40
2022-07-31T01:48:49.907Z,23.35
2022-07-31T01:51:39.186Z,23.09
2022-07-31T01:54:24.153Z,23.31
2022-07-31T01:57:09.866Z,23.32
2022-07-31T02:00:02.429Z,23.31
2022-07-31T02:03:01.520Z,23.33
2022-07-31T02:05:56.513Z,23.43
2022-07-31T02:08:40.502Z,23.49
2022-07-31T02:11:25.137Z,23.55
2022-07-31T02:14:10.511Z,23.13
2022-07-31T02:16:56.057Z,24.07
2022-07-31T02:19:59.841Z,24.13
2022-07-31T02:22:44.906Z,24.22
2022-07-31T02:25:29.662Z,24.09
2022-07-31T02:28:20.400Z,24.09
2022-07-31T02:31:05.004Z,24.02
2022-07-31T02:33:49.797Z,24.13
2022-07-31T02:36:36.883Z,24.20
2022-07-31T02:39:22.274Z,24.34
2022-07-31T02:42:08.732Z,24.33
2022-07-31T02:44:53.837Z,24.15
2022-07-31T02:47:38.228Z,24.03
2022-07-31T02:50:26.347Z,24.21
2022-07-31T02:53:12.797Z,24.08
2022-07-31T02:55:57.531Z,24.37
2022-07-31T02:58:42.185Z,24.38
2022-07-31T03:01:36.275Z,24.24
2022-07-31T03:04:22.286Z,24.27
2022-07-31T03:07:06.247Z,24.41
2022-07-31T03:09:52.207Z,24.51
2022-07-31T03:13:00.249Z,24.58
2022-07-31T03:15:50.858Z,24.52
2022-07-31T03:18:35.932Z,24.32
2022-07-31T03:21:21.084Z,24.36
2022-07-31T03:24:05.680Z,24.51
2022-07-31T03:26:51.797Z,24.62
2022-07-31T03:29:43.645Z,24.76
2022-07-31T03:32:28.290Z,24.90
2022-07-31T03:35:12.540Z,24.90
2022-07-31T03:37:56.905Z,24.85
2022-07-31T03:40:41.645Z,24.91
2022-07-31T03:43:27.642Z,25.00
2022-07-31T03:46:15.575Z,25.12
2022-07-31T03:49:00.119Z,25.26
2022-07-31T03:51:45.478Z,25.29
2022-07-31T03:54:31.318Z,25.26
2022-07-31T03:57:37.070Z,25.40
2022-07-31T04:00:27.249Z,25.40
2022-07-31T04:03:15.346Z,25.49
2022-07-31T04:06:08.204Z,25.46
2022-07-31T04:08:52.516Z,25.38
2022-07-31T04:11:36.638Z,25.68
2022-07-31T04:14:22.363Z,25.52
2022-07-31T04:17:07.744Z,25.60
2022-07-31T04:19:52.573Z,25.79
2022-07-31T04:22:36.479Z,25.75
2022-07-31T04:25:25.172Z,25.80
2022-07-31T04:28:24.611Z,26.10
2022-07-31T04:31:08.420Z,25.43
2022-07-31T04:33:57.294Z,25.51
2022-07-31T04:36:41.351Z,25.32
2022-07-31T04:39:25.220Z,25.20
2022-07-31T04:42:11.611Z,25.63
2022-07-31T04:44:55.775Z,25.54
2022-07-31T04:47:39.632Z,25.50
2022-07-31T04:50:25.262Z,25.45
2022-07-31T04:53:13.211Z,25.32
2022-07-31T04:56:16.606Z,25.29
2022-07-31T04:59:01.667Z,25.22
2022-07-31T05:01:46.424Z,25.16
2022-07-31T05:04:32.608Z,25.17
2022-07-31T05:07:17.884Z,25.30
2022-07-31T05:10:01.813Z,25.48
2022-07-31T05:12:47.579Z,25.90
2022-07-31T05:15:32.637Z,26.61
2022-07-31T05:18:16.591Z,26.84
2022-07-31T05:21:21.650Z,26.89
2022-07-31T05:24:32.487Z,26.41
2022-07-31T05:27:23.712Z,27.08
2022-07-31T05:30:08.545Z,27.43
2022-07-31T05:32:53.531Z,27.84
2022-07-31T05:35:37.482Z,27.57
2022-07-31T05:38:21.409Z,27.80
2022-07-31T05:41:25.868Z,27.92
2022-07-31T05:44:15.815Z,28.32
2022-07-31T05:47:02.965Z,28.52
2022-07-31T05:49:48.026Z,28.29
2022-07-31T05:52:32.733Z,28.45
2022-07-31T05:55:35.000Z,28.23
2022-07-31T05:58:44.033Z,28.60
2022-07-31T06:01:33.747Z,28.05
2022-07-31T06:04:20.834Z,28.43
2022-07-31T06:07:05.139Z,28.33
2022-07-31T06:09:49.184Z,28.60
2022-07-31T06:12:34.381Z,29.39
2022-07-31T06:15:20.428Z,29.29
2022-07-31T06:18:04.557Z,29.14
2022-07-31T06:20:48.966Z,29.18
2022-07-31T06:23:32.902Z,29.35
2022-07-31T06:26:24.369Z,29.08
2022-07-31T06:29:10.703Z,29.40
2022-07-31T06:31:56.581Z,29.79
2022-07-31T06:34:41.475Z,29.40
2022-07-31T06:37:26.118Z,29.00
2022-07-31T06:40:12.202Z,28.89
2022-07-31T06:43:28.100Z,29.15
2022-07-31T06:46:30.581Z,29.64
2022-07-31T06:49:41.941Z,29.48
2022-07-31T06:52:25.788Z,29.44
2022-07-31T06:55:10.871Z,29.43
2022-07-31T06:57:56.684Z,29.49
2022-07-31T07:00:40.576Z,30.05
2022-07-31T07:03:24.539Z,29.91
2022-07-31T07:06:10.015Z,29.91
2022-07-31T07:08:54.504Z,29.49
2022-07-31T07:11:40.940Z,29.68
2022-07-31T07:14:25.069Z,29.86
2022-07-31T07:17:09.170Z,29.90
2022-07-31T07:19:55.005Z,30.36
2022-07-31T07:22:41.366Z,30.27
2022-07-31T07:25:26.024Z,30.49
2022-07-31T07:28:15.181Z,30.48
2022-07-31T07:31:13.541Z,30.41
2022-07-31T07:33:57.529Z,30.47
2022-07-31T07:36:41.616Z,30.90
2022-07-31T07:39:33.419Z,30.99
2022-07-31T07:42:17.660Z,31.15
2022-07-31T07:45:06.553Z,31.29
2022-07-31T07:47:54.073Z,31.18
2022-07-31T07:51:00.554Z,31.73
2022-07-31T07:53:51.716Z,32.19
2022-07-31T07:57:15.858Z,31.73
2022-07-31T08:00:11.544Z,32.04
2022-07-31T08:03:02.775Z,31.83
2022-07-31T08:06:05.697Z,32.41
2022-07-31T08:08:53.969Z,32.71
2022-07-31T08:11:58.021Z,32.62
2022-07-31T08:15:02.450Z,33.23
2022-07-31T08:18:21.666Z,32.59
2022-07-31T08:21:11.264Z,32.62
2022-07-31T08:23:55.475Z,33.25
2022-07-31T08:26:57.210Z,33.44
2022-07-31T08:29:42.899Z,33.45
2022-07-31T08:32:35.070Z,32.89
2022-07-31T08:35:44.707Z,33.23
2022-07-31T08:38:34.904Z,33.47
2022-07-31T08:41:40.885Z,34.27
2022-07-31T08:44:31.224Z,34.15
2022-07-31T08:47:17.712Z,34.91
2022-07-31T08:50:05.156Z,35.35
2022-07-31T08:52:50.828Z,35.09
2022-07-31T08:55:56.466Z,34.18
2022-07-31T08:58:45.940Z,33.87
2022-07-31T09:01:30.914Z,34.55
2022-07-31T09:04:15.269Z,35.32
2022-07-31T09:07:01.864Z,35.57
2022-07-31T09:09:51.786Z,34.23
2022-07-31T09:12:37.532Z,32.25
2022-07-31T09:15:26.477Z,31.42
2022-07-31T09:18:19.847Z,31.87
2022-07-31T09:21:06.970Z,32.33
2022-07-31T09:23:54.575Z,32.33
2022-07-31T09:26:41.147Z,31.55
2022-07-31T09:29:35.873Z,32.05
2022-07-31T09:32:22.226Z,32.34
2022-07-31T09:35:26.408Z,31.47
2022-07-31T09:38:10.371Z,31.40
2022-07-31T09:41:56.838Z,31.39
2022-07-31T09:44:39.061Z,31.16
2022-07-31T09:47:24.235Z,30.61
2022-07-31T09:50:09.160Z,30.41
2022-07-31T09:53:00.073Z,28.96
2022-07-31T09:55:51.299Z,27.57
2022-07-31T09:58:36.595Z,27.24
2022-07-31T10:01:21.259Z,26.88
2022-07-31T10:04:08.360Z,26.82
2022-07-31T10:06:53.914Z,26.51
2022-07-31T10:09:41.117Z,26.96
2022-07-31T10:12:32.965Z,27.22
2022-07-31T10:15:20.664Z,27.93
2022-07-31T10:18:21.085Z,28.52
2022-07-31T10:21:49.897Z,28.87
2022-07-31T10:24:42.470Z,29.32
2022-07-31T10:27:26.673Z,29.64
2022-07-31T10:30:16.749Z,29.98
2022-07-31T10:33:40.786Z,29.81
2022-07-31T10:36:52.946Z,30.26
2022-07-31T10:39:59.811Z,30.27
2022-07-31T10:43:29.247Z,29.98
2022-07-31T10:46:30.299Z,30.54
2022-07-31T10:49:42.807Z,30.18
2022-07-31T10:52:48.315Z,29.94
2022-07-31T10:55:32.713Z,29.92
2022-07-31T10:58:34.513Z,30.69
2022-07-31T11:01:52.849Z,30.38
2022-07-31T11:05:08.549Z,30.73
2022-07-31T11:08:08.523Z,30.99
2022-07-31T11:11:14.372Z,30.25
2022-07-31T11:14:33.095Z,30.62
2022-07-31T11:18:16.655Z,30.56
2022-07-31T11:20:47.100Z,30.77
2022-07-31T11:23:33.348Z,30.21
2022-07-31T11:26:18.858Z,30.68
2022-07-31T11:30:01.030Z,31.30
2022-07-31T11:32:32.127Z,31.29
2022-07-31T11:35:26.713Z,31.96
2022-07-31T11:38:12.212Z,32.51
2022-07-31T11:40:56.343Z,33.50
2022-07-31T11:43:45.849Z,33.30
2022-07-31T11:46:32.245Z,32.33
2022-07-31T11:49:47.980Z,32.74
2022-07-31T11:52:31.073Z,32.58
2022-07-31T11:55:22.579Z,32.57
2022-07-31T11:58:11.238Z,32.30
2022-07-31T12:00:56.982Z,33.00
2022-07-31T12:03:41.265Z,33.07
2022-07-31T12:06:25.730Z,32.71
2022-07-31T12:10:02.177Z,32.88
2022-07-31T12:12:15.357Z,32.78
2022-07-31T12:14:59.376Z,32.92
2022-07-31T12:17:43.614Z,32.79
2022-07-31T12:20:35.256Z,32.78
2022-07-31T12:23:40.932Z,33.23
2022-07-31T12:26:26.161Z,32.83
2022-07-31T12:29:13.611Z,32.35
2022-07-31T12:31:59.111Z,31.79
2022-07-31T12:34:44.524Z,31.51
2022-07-31T12:37:28.818Z,31.42
2022-07-31T12:40:25.631Z,31.47
2022-07-31T12:43:09.874Z,31.94
2022-07-31T12:45:58.785Z,32.53
2022-07-31T12:48:46.071Z,32.96
2022-07-31T12:51:44.717Z,33.32
2022-07-31T12:54:31.644Z,33.34
2022-07-31T12:57:15.704Z,31.68
2022-07-31T12:59:59.764Z,32.04
2022-07-31T13:02:45.581Z,32.19
2022-07-31T13:05:29.825Z,32.59
2022-07-31T13:08:14.257Z,32.34
2022-07-31T13:10:58.314Z,32.82
2022-07-31T13:13:42.928Z,32.80
2022-07-31T13:16:27.036Z,32.59
2022-07-31T13:19:13.240Z,32.96
2022-07-31T13:21:57.253Z,33.46
2022-07-31T13:24:41.412Z,33.18
2022-07-31T13:27:25.393Z,33.69
2022-07-31T13:30:10.711Z,33.97
2022-07-31T13:32:55.015Z,33.80
2022-07-31T13:35:40.605Z,33.14
2022-07-31T13:38:24.581Z,33.38
2022-07-31T13:41:25.314Z,33.21
2022-07-31T13:44:09.793Z,33.75
2022-07-31T13:46:53.865Z,33.34
2022-07-31T13:49:38.077Z,33.90
2022-07-31T13:52:24.030Z,33.82
2022-07-31T13:55:08.709Z,34.01
2022-07-31T13:57:55.378Z,33.82
2022-07-31T14:00:43.610Z,34.95
2022-07-31T14:03:27.803Z,35.29
2022-07-31T14:06:13.900Z,35.45
2022-07-31T14:08:59.618Z,35.17
2022-07-31T14:11:43.667Z,35.04
2022-07-31T14:14:29.904Z,34.57
2022-07-31T14:17:13.867Z,34.70
2022-07-31T14:19:57.908Z,34.47
2022-07-31T14:22:42.023Z,34.18
2022-07-31T14:25:27.622Z,34.36
2022-07-31T14:28:12.178Z,34.15
2022-07-31T14:30:56.166Z,34.14
2022-07-31T14:33:40.120Z,34.14
2022-07-31T14:36:24.168Z,33.93
2022-07-31T14:39:08.198Z,33.28
2022-07-31T14:41:53.766Z,32.57
2022-07-31T14:44:38.531Z,32.93
2022-07-31T14:47:22.693Z,32.31
2022-07-31T14:50:12.040Z,32.25
2022-07-31T14:52:57.312Z,32.81
2022-07-31T14:55:42.605Z,32.93
2022-07-31T14:58:28.063Z,32.55
2022-07-31T15:01:12.210Z,30.33
2022-07-31T15:03:56.275Z,29.37
2022-07-31T15:07:02.759Z,27.72
2022-07-31T15:09:44.444Z,25.92
2022-07-31T15:12:28.584Z,26.32
2022-07-31T15:15:14.291Z,26.61
2022-07-31T15:17:58.446Z,26.18
2022-07-31T15:20:42.763Z,26.64
2022-07-31T15:23:26.904Z,26.54
2022-07-31T15:26:20.745Z,26.74
2022-07-31T15:29:04.876Z,27.22
2022-07-31T15:31:50.367Z,27.67
2022-07-31T15:34:35.906Z,27.66
2022-07-31T15:37:20.573Z,28.25
2022-07-31T15:40:06.909Z,28.64
2022-07-31T15:42:51.034Z,27.98
2022-07-31T15:45:35.164Z,27.80
2022-07-31T15:48:20.546Z,28.32
2022-07-31T15:51:05.463Z,27.89
2022-07-31T15:53:49.413Z,28.14
2022-07-31T15:56:33.461Z,28.43
2022-07-31T15:59:17.556Z,28.67
2022-07-31T16:02:01.599Z,28.72
2022-07-31T16:04:52.845Z,28.38
2022-07-31T16:08:28.664Z,28.09
2022-07-31T16:10:42.097Z,27.94
2022-07-31T16:13:26.572Z,27.84
2022-07-31T16:16:11.143Z,27.86
2022-07-31T16:18:55.249Z,27.88
2022-07-31T16:21:40.997Z,28.01
2022-07-31T16:24:25.189Z,28.00
2022-07-31T16:27:09.319Z,28.17
2022-07-31T16:30:01.658Z,28.17
2022-07-31T16:32:51.025Z,28.23
2022-07-31T16:35:35.056Z,28.19
2022-07-31T16:38:20.525Z,28.00
2022-07-31T16:41:04.713Z,28.06
2022-07-31T16:43:51.777Z,27.87
2022-07-31T16:46:36.101Z,27.81
2022-07-31T16:49:35.517Z,27.75
2022-07-31T16:52:21.262Z,27.78
2022-07-31T16:55:07.974Z,27.70
2022-07-31T16:57:51.963Z,27.54
2022-07-31T17:00:36.161Z,26.99
2022-07-31T17:03:58.849Z,26.62
2022-07-31T17:06:36.025Z,26.12
2022-07-31T17:09:21.776Z,26.09
2022-07-31T17:12:08.255Z,25.94
2022-07-31T17:14:52.639Z,25.74
2022-07-31T17:17:39.584Z,25.51
2022-07-31T17:20:24.583Z,24.96
2022-07-31T17:23:10.438Z,24.95
2022-07-31T17:25:55.549Z,24.92
2022-07-31T17:28:41.259Z,24.63
2022-07-31T17:31:25.546Z,24.65
2022-07-31T17:34:09.722Z,24.17
2022-07-31T17:36:53.707Z,24.10
2022-07-31T17:39:37.850Z,24.13
2022-07-31T17:42:23.756Z,23.77
2022-07-31T17:45:11.573Z,23.70
2022-07-31T17:48:03.409Z,23.04
2022-07-31T17:50:51.363Z,22.25
2022-07-31T17:53:54.444Z,20.69
2022-07-31T17:56:38.887Z,21.01
2022-07-31T17:59:23.391Z,21.05
2022-07-31T18:02:09.429Z,21.42
2022-07-31T18:04:53.861Z,21.26
2022-07-31T18:07:39.198Z,21.30
2022-07-31T18:10:38.548Z,21.76
2022-07-31T18:13:27.456Z,22.05
2022-07-31T18:16:11.546Z,22.29
2022-07-31T18:18:57.021Z,22.20
2022-07-31T18:21:41.376Z,21.97
2022-07-31T18:24:26.367Z,22.27
2022-07-31T18:27:10.442Z,22.63
2022-07-31T18:29:55.983Z,22.77
2022-07-31T18:32:43.220Z,22.58
2022-07-31T18:35:29.568Z,21.86
2022-07-31T18:38:13.749Z,21.65
2022-07-31T18:40:57.703Z,21.70
2022-07-31T18:43:41.751Z,22.05
2022-07-31T18:46:25.866Z,22.26
2022-07-31T18:50:59.131Z,22.35
2022-07-31T18:52:17.089Z,22.80
2022-07-31T18:55:01.220Z,22.87
2022-07-31T18:57:47.254Z,23.00
2022-07-31T19:00:31.704Z,22.80
2022-07-31T19:03:17.880Z,22.47
2022-07-31T19:06:02.050Z,21.99
2022-07-31T19:08:49.794Z,21.80
2022-07-31T19:11:33.842Z,21.90
2022-07-31T19:14:17.922Z,21.98
2022-07-31T19:17:02.262Z,22.09
2022-07-31T19:20:00.455Z,22.25
2022-07-31T19:22:47.586Z,22.10
2022-07-31T19:25:53.861Z,22.40
2022-07-31T19:28:40.118Z,22.29
2022-07-31T19:31:24.454Z,22.37
2022-07-31T19:34:08.595Z,22.35
2022-07-31T19:36:52.536Z,21.65
2022-07-31T19:39:36.587Z,22.40
2022-07-31T19:42:22.306Z,22.38
2022-07-31T19:45:07.179Z,22.05
2022-07-31T19:47:51.554Z,22.52
2022-07-31T19:50:35.527Z,22.61
2022-07-31T19:53:19.632Z,22.62
2022-07-31T19:56:05.916Z,22.61
2022-07-31T19:58:52.261Z,22.59
2022-07-31T20:01:36.470Z,22.43
2022-07-31T20:04:20.598Z,22.37
2022-07-31T20:07:04.899Z,22.55
2022-07-31T20:09:48.976Z,22.49
2022-07-31T20:12:33.216Z,22.32
2022-07-31T20:15:18.733Z,22.31
2022-07-31T20:18:02.736Z,22.28
2022-07-31T20:20:47.132Z,22.10
2022-07-31T20:23:34.573Z,22.33
2022-07-31T20:26:19.033Z,22.04
2022-07-31T20:29:03.238Z,21.84
2022-07-31T20:31:48.782Z,21.81
2022-07-31T20:34:33.006Z,21.72
2022-07-31T20:37:17.110Z,21.72
2022-07-31T20:40:01.155Z,21.63
2022-07-31T20:42:45.450Z,21.59
2022-07-31T20:45:29.520Z,21.67
2022-07-31T20:48:15.065Z,21.74
2022-07-31T20:51:00.175Z,21.68
2022-07-31T20:53:44.840Z,21.79
2022-07-31T20:56:29.018Z,21.45
2022-07-31T20:59:14.025Z,21.51
2022-07-31T21:01:58.376Z,21.17
2022-07-31T21:04:43.901Z,21.42
2022-07-31T21:07:28.011Z,21.31
2022-07-31T21:10:12.217Z,21.47
2022-07-31T21:12:59.560Z,21.49
2022-07-31T21:15:45.317Z,21.43
2022-07-31T21:18:34.573Z,21.39
2022-07-31T21:21:20.914Z,21.16
2022-07-31T21:24:05.799Z,20.92
2022-07-31T21:26:52.164Z,21.05
2022-07-31T21:29:38.154Z,21.14
2022-07-31T21:32:22.807Z,21.15
2022-07-31T21:35:08.254Z,21.32
2022-07-31T21:37:54.678Z,21.18
2022-07-31T21:40:41.408Z,21.08
2022-07-31T21:43:37.203Z,21.17
2022-07-31T21:46:39.826Z,21.23
2022-07-31T21:49:33.917Z,21.20
2022-07-31T21:52:17.909Z,21.23
2022-07-31T21:55:04.622Z,21.36
2022-07-31T21:57:58.744Z,21.53
2022-07-31T22:00:44.278Z,21.47
2022-07-31T22:03:28.422Z,21.59
2022-07-31T22:06:29.928Z,21.44
2022-07-31T22:09:13.873Z,21.42
2022-07-31T22:12:02.146Z,21.46
2022-07-31T22:14:46.057Z,21.36
2022-07-31T22:17:29.969Z,21.43
2022-07-31T22:20:15.010Z,21.32
2022-07-31T22:22:59.315Z,21.14
2022-07-31T22:25:47.039Z,21.10
2022-07-31T22:28:32.841Z,21.23
2022-07-31T22:31:17.139Z,20.96
2022-07-31T22:34:01.237Z,21.05
2022-07-31T22:36:45.333Z,21.03
2022-07-31T22:39:29.806Z,21.21
2022-07-31T22:42:14.594Z,21.12
2022-07-31T22:45:00.152Z,21.18
2022-07-31T22:47:44.567Z,21.09
2022-07-31T22:50:28.636Z,21.10
2022-07-31T22:53:13.019Z,21.07
2022-07-31T22:55:56.870Z,21.01
2022-07-31T22:58:40.732Z,21.06
2022-07-31T23:01:25.916Z,20.91
2022-07-31T23:04:09.826Z,20.99
2022-07-31T23:06:54.022Z,21.05
2022-07-31T23:09:38.217Z,20.97
2022-07-31T23:12:21.993Z,20.92
2022-07-31T23:15:12.294Z,20.84
2022-07-31T23:17:57.551Z,20.87
2022-07-31T23:20:41.672Z,20.58
2022-07-31T23:23:25.629Z,20.61
2022-07-31T23:26:10.272Z,20.55
2022-07-31T23:28:55.102Z,20.31
2022-07-31T23:31:39.307Z,20.25
2022-07-31T23:34:24.509Z,20.50
2022-07-31T23:37:09.290Z,20.54
2022-07-31T23:39:53.129Z,20.55
2022-07-31T23:42:39.531Z,20.62
2022-07-31T23:45:24.346Z,20.65
2022-07-31T23:48:08.770Z,20.69
2022-07-31T23:51:00.383Z,20.64
2022-07-31T23:53:44.313Z,20.60
2022-07-31T23:56:28.824Z,20.55
2022-07-31T23:59:12.784Z,20.62
